Maldives Meteorological Service

TAFS

Station TAF
VRMM
VRMM 270500Z 2706/2812 29007KT 9999 FEW018TCU TEMPO 2706/2712 FEW018CB=
VRMH
VRMH 270500Z 2706/2812 30008KT 9999 FEW018 TEMPO 2709/2712 FEW019CB=
VRMK
VRMK 270500Z 2706/2806 13005KT 9999 SCT018TCU TEMPO 2706/2712 6000 –TSRA FEW017CB=
VRMT
VRMT 270500Z 2706/2806 15003KT 9999 SCT017TCU TEMPO 2706/2712 5000 TSRA FEW017CB=
VRMG
VRMG 270500Z 2706/2812 13005KT 9999 SCT017TCU SCT100 TEMPO 2706/2712 4000 TSRA SCT016 FEW017CB=